Time;durP1;ratioP1;P1;durP2;ratioP2;P2;SDS_P1;SDS_P2;PMS_P1;PMS_P2;Temp;Humidity;BMP_temperature;BMP_pressure;BME280_temperature;BME280_humidity;BME280_pressure;Samples;Min_cycle;Max_cycle;Signal;HPM_P1;HPM_P2
2022/10/24 00:00:08;;;;;;;17.70;7.40;;;;;;;41.83;35.12;101084.53;6219479;23;20426;-72
2022/10/24 00:02:34;;;;;;;23.53;8.97;;;;;;;41.54;35.61;101083.34;6219790;23;20739;-71
2022/10/24 00:05:01;;;;;;;21.47;11.47;;;;;;;41.80;35.46;101079.72;6219536;23;20429;-71
2022/10/24 00:07:26;;;;;;;19.13;12.17;;;;;;;41.67;35.92;101062.47;6219442;23;20374;-70
2022/10/24 00:09:52;;;;;;;19.37;12.00;;;;;;;41.50;36.24;101065.28;6219423;23;20397;-70
2022/10/24 00:12:19;;;;;;;15.17;10.33;;;;;;;41.49;36.18;101056.28;6219388;23;20899;-70
2022/10/24 00:14:45;;;;;;;15.77;9.47;;;;;;;41.22;36.67;101051.25;6219391;23;20394;-70
2022/10/24 00:17:11;;;;;;;20.63;13.27;;;;;;;40.73;37.47;101054.16;6219267;23;20378;-70
2022/10/24 00:19:37;;;;;;;24.83;12.27;;;;;;;41.18;36.92;101047.56;6219512;23;20444;-70
2022/10/24 00:22:04;;;;;;;14.57;10.67;;;;;;;41.32;36.14;101048.19;6219230;23;20858;-71
2022/10/24 00:24:29;;;;;;;20.47;11.50;;;;;;;41.37;36.22;101028.94;6219268;23;20386;-70
2022/10/24 00:26:55;;;;;;;18.63;11.50;;;;;;;41.21;36.84;101027.88;6219634;23;20465;-70
2022/10/24 00:29:22;;;;;;;22.63;11.70;;;;;;;41.38;36.68;101021.59;6246311;23;20378;-70
2022/10/24 00:31:48;;;;;;;27.93;10.97;;;;;;;41.49;36.28;101017.38;6219407;23;20785;-71
2022/10/24 00:34:15;;;;;;;20.50;12.43;;;;;;;41.53;36.16;101008.22;6219168;23;20843;-70
2022/10/24 01:07:10;;;;;;;13.97;10.30;;;;;;;40.05;39.68;100984.25;5110121;27;20935;-75
2022/10/24 01:09:42;;;;;;;18.90;10.10;;;;;;;40.44;39.25;100986.81;5079110;28;21006;-70
2022/10/24 01:12:33;;;;;;;17.53;11.90;;;;;;;40.84;38.58;100981.19;5090605;28;20451;-72
2022/10/24 01:15:20;;;;;;;16.40;12.30;;;;;;;40.92;38.40;100968.72;5091422;28;20446;-73
2022/10/24 01:18:11;;;;;;;16.47;12.33;;;;;;;40.88;37.86;100970.47;5090477;28;20958;-70
2022/10/24 01:21:04;;;;;;;24.93;14.50;;;;;;;41.23;37.60;100965.72;5074921;28;20428;-72
2022/10/24 01:23:59;;;;;;;32.23;13.53;;;;;;;41.28;37.02;100965.56;5088263;28;20400;-73
2022/10/24 01:27:07;;;;;;;25.73;15.07;;;;;;;41.40;36.77;100975.78;5081787;28;20413;-71
2022/10/24 01:29:50;;;;;;;28.73;15.37;;;;;;;41.47;36.58;100978.78;5092196;28;20526;-73
2022/10/24 01:32:20;;;;;;;27.30;14.30;;;;;;;40.91;37.70;100961.69;5089360;28;20419;-73
2022/10/24 01:35:16;;;;;;;22.70;12.40;;;;;;;41.11;37.25;100958.25;5089182;28;20444;-72
2022/10/24 01:37:52;;;;;;;20.90;12.10;;;;;;;41.10;37.11;100964.81;5089189;28;20436;-73
2022/10/24 01:40:59;;;;;;;15.87;12.33;;;;;;;40.96;37.49;100967.75;5089027;28;20415;-75
2022/10/24 01:43:43;;;;;;;23.90;13.27;;;;;;;41.06;37.25;100975.53;4979004;28;20825;-73
2022/10/24 01:46:18;;;;;;;22.73;13.87;;;;;;;40.93;37.12;100973.84;5080437;28;20522;-71
2022/10/24 01:48:53;;;;;;;20.97;13.43;;;;;;;41.13;36.83;100975.06;5089467;28;20415;-70
2022/10/24 01:51:23;;;;;;;17.40;10.13;;;;;;;41.11;36.77;100977.31;5089478;28;20446;-72
2022/10/24 01:53:50;;;;;;;24.60;14.67;;;;;;;40.65;37.26;100978.84;5109096;28;20432;-74
2022/10/24 01:56:16;;;;;;;17.30;12.70;;;;;;;40.75;37.34;100973.03;5077844;28;20448;-73
2022/10/24 01:58:43;;;;;;;21.87;11.77;;;;;;;40.75;36.82;100959.44;5070284;28;20936;-73
2022/10/24 02:01:15;;;;;;;25.53;11.40;;;;;;;40.68;37.15;100963.78;5070284;28;20940;-71
2022/10/24 02:03:51;;;;;;;31.37;12.73;;;;;;;39.53;39.15;100968.56;5070211;28;20532;-70
2022/10/24 02:06:39;;;;;;;21.37;12.60;;;;;;;40.14;38.22;100961.38;5060335;28;20476;-72
2022/10/24 02:09:10;;;;;;;39.27;11.50;;;;;;;39.78;38.51;100961.66;5053703;28;20904;-74
2022/10/24 02:11:37;;;;;;;18.97;9.57;;;;;;;39.95;38.75;100955.44;5054801;28;20422;-74
2022/10/24 02:14:06;;;;;;;17.93;11.00;;;;;;;40.67;37.53;100956.75;5053559;28;20419;-74
2022/10/24 02:16:34;;;;;;;15.20;9.90;;;;;;;40.16;37.58;100948.31;5053244;28;20450;-72
2022/10/24 02:19:00;;;;;;;14.60;9.43;;;;;;;39.84;38.39;100948.72;5053528;28;20433;-72
2022/10/24 02:22:02;;;;;;;20.00;10.37;;;;;;;39.12;39.51;100947.97;5053340;28;20419;-72
2022/10/24 02:24:45;;;;;;;17.87;11.00;;;;;;;39.65;38.96;100949.78;5053320;28;20426;-71
2022/10/24 02:27:37;;;;;;;23.03;11.10;;;;;;;40.23;37.67;100951.34;5053139;28;20450;-72
2022/10/24 02:30:20;;;;;;;16.07;10.40;;;;;;;39.86;38.07;100951.94;5052587;28;20431;-72
2022/10/24 02:32:50;;;;;;;17.93;9.40;;;;;;;40.17;37.85;100943.66;5043703;28;20455;-71
2022/10/24 02:35:21;;;;;;;19.50;9.43;;;;;;;40.09;38.00;100939.03;5049070;28;20520;-74
2022/10/24 02:37:52;;;;;;;19.27;10.07;;;;;;;39.95;38.22;100939.13;5053168;28;20476;-74
2022/10/24 02:40:21;;;;;;;19.53;9.67;;;;;;;39.56;38.73;100943.53;5038890;28;20939;-73
2022/10/24 02:42:51;;;;;;;20.60;11.03;;;;;;;39.75;38.51;100949.50;5052971;28;20434;-72
2022/10/24 02:45:18;;;;;;;16.03;10.27;;;;;;;39.78;38.29;100953.53;5052778;28;20441;-72
2022/10/24 02:47:46;;;;;;;19.30;9.10;;;;;;;39.11;39.72;100954.50;5053044;28;20414;-72
2022/10/24 02:50:13;;;;;;;17.43;11.10;;;;;;;39.90;38.86;100942.84;5053012;28;20457;-72
2022/10/24 02:52:40;;;;;;;20.13;10.13;;;;;;;39.87;38.43;100945.38;5052826;28;20445;-72
2022/10/24 02:55:07;;;;;;;16.17;9.07;;;;;;;39.82;38.25;100957.19;5052692;28;21008;-71
2022/10/24 02:57:32;;;;;;;12.13;7.63;;;;;;;40.16;38.10;100951.03;5052784;28;20453;-74
2022/10/24 02:59:58;;;;;;;12.47;8.67;;;;;;;39.80;38.34;100956.72;5054320;28;20426;-72
2022/10/24 03:02:24;;;;;;;14.80;9.40;;;;;;;39.82;38.75;100961.81;5052626;28;20192;-72
2022/10/24 03:04:50;;;;;;;17.43;9.57;;;;;;;40.19;37.97;100953.09;5052345;28;20462;-71
2022/10/24 03:07:16;;;;;;;24.30;10.83;;;;;;;40.25;37.77;100956.44;5052918;28;20936;-72
2022/10/24 03:09:42;;;;;;;14.53;8.57;;;;;;;40.45;37.29;100961.22;5052348;28;20190;-72
2022/10/24 03:12:12;;;;;;;14.03;9.87;;;;;;;40.64;36.84;100966.38;5052589;28;20426;-72
2022/10/24 03:14:38;;;;;;;20.43;7.80;;;;;;;40.17;37.57;100974.34;5052064;28;20228;-71
2022/10/24 03:17:04;;;;;;;13.13;7.67;;;;;;;39.83;37.75;100969.63;5052222;28;20455;-72
2022/10/24 03:19:30;;;;;;;12.30;7.50;;;;;;;39.96;38.01;100954.31;5051594;28;20187;-72
2022/10/24 03:21:56;;;;;;;12.37;7.97;;;;;;;40.14;37.58;100964.09;5039492;28;20254;-72
2022/10/24 03:24:21;;;;;;;11.57;7.40;;;;;;;40.26;36.95;100967.00;5052311;28;20561;-72
2022/10/24 03:26:50;;;;;;;11.00;7.07;;;;;;;39.87;37.87;100970.63;5035535;28;20181;-72
2022/10/24 03:29:17;;;;;;;13.93;7.20;;;;;;;39.94;37.87;100970.16;5042561;28;20187;-72
2022/10/24 03:31:43;;;;;;;11.93;7.00;;;;;;;39.65;37.77;100965.28;5051976;28;20434;-72
2022/10/24 03:34:09;;;;;;;12.30;6.70;;;;;;;39.96;37.78;100965.19;5051983;28;20451;-72
2022/10/24 03:36:35;;;;;;;14.70;7.33;;;;;;;40.06;37.43;100964.91;5052079;28;20508;-73
2022/10/24 03:39:02;;;;;;;14.60;8.60;;;;;;;39.82;37.80;100975.41;5051872;28;20263;-72
2022/10/24 03:41:28;;;;;;;20.23;8.97;;;;;;;39.38;38.43;100974.44;5052048;28;20426;-72
2022/10/24 03:43:54;;;;;;;12.93;7.50;;;;;;;40.00;37.70;100977.81;5053087;28;20418;-72
2022/10/24 03:46:19;;;;;;;13.67;7.87;;;;;;;39.64;38.12;100980.78;5042730;28;20427;-73
2022/10/24 03:48:45;;;;;;;12.40;8.30;;;;;;;40.11;37.18;100982.97;5045874;28;20184;-71
2022/10/24 03:51:11;;;;;;;15.17;7.20;;;;;;;40.36;36.91;100974.03;5039098;28;20180;-72
2022/10/24 03:53:37;;;;;;;12.50;8.47;;;;;;;40.23;37.24;100981.22;5051577;28;20438;-72
2022/10/24 03:56:03;;;;;;;15.70;8.60;;;;;;;39.95;37.31;100977.16;5051442;28;20208;-71
2022/10/24 03:58:29;;;;;;;13.57;9.27;;;;;;;40.06;37.39;100986.66;5033534;28;20197;-72
2022/10/24 04:00:57;;;;;;;13.07;7.30;;;;;;;40.19;37.40;100977.53;5049300;28;20437;-74
2022/10/24 04:03:24;;;;;;;17.23;9.50;;;;;;;39.85;37.76;100977.50;5051483;28;20537;-73
2022/10/24 04:05:51;;;;;;;11.97;7.10;;;;;;;40.53;36.59;100967.81;5066652;28;20552;-72
2022/10/24 04:08:17;;;;;;;23.27;8.90;;;;;;;39.85;37.11;100978.28;5054680;28;21021;-72
2022/10/24 04:10:43;;;;;;;17.80;8.37;;;;;;;40.05;36.93;100971.47;5054797;28;20418;-72
2022/10/24 04:13:10;;;;;;;17.63;9.07;;;;;;;39.91;36.65;100976.22;5054615;28;20991;-72
2022/10/24 04:15:35;;;;;;;15.47;6.43;;;;;;;40.11;36.16;100972.13;5054542;28;20511;-72
2022/10/24 04:18:01;;;;;;;18.67;8.10;;;;;;;40.41;36.08;100962.22;5051491;28;20430;-69
2022/10/24 04:20:28;;;;;;;21.53;8.07;;;;;;;39.85;37.04;100962.00;5051191;28;20214;-71
2022/10/24 04:22:53;;;;;;;12.47;8.13;;;;;;;39.65;37.06;100963.38;5054595;28;20471;-72
2022/10/24 04:25:19;;;;;;;18.27;9.90;;;;;;;40.00;36.23;100966.16;5054424;28;20417;-72
2022/10/24 04:27:46;;;;;;;17.77;11.07;;;;;;;39.44;37.71;100965.84;5054346;28;20179;-72
2022/10/24 04:30:13;;;;;;;13.00;10.63;;;;;;;39.17;38.09;100968.78;5054207;28;20183;-72
2022/10/24 04:32:39;;;;;;;24.53;10.60;;;;;;;39.90;37.26;100967.28;5054386;28;20429;-71
2022/10/24 04:35:06;;;;;;;26.60;13.30;;;;;;;39.69;37.30;100964.34;5051376;28;20450;-72
2022/10/24 04:37:32;;;;;;;15.73;11.97;;;;;;;40.06;36.69;100962.19;5054461;28;20414;-74
2022/10/24 04:39:58;;;;;;;13.90;9.60;;;;;;;40.02;36.61;100956.59;5054336;28;21002;-74
2022/10/24 04:42:24;;;;;;;15.57;10.60;;;;;;;39.71;37.59;100967.53;5054116;28;20290;-69
2022/10/24 04:44:50;;;;;;;14.13;9.23;;;;;;;40.05;36.63;100976.09;5050865;28;20176;-72
2022/10/24 04:47:16;;;;;;;17.00;9.80;;;;;;;39.83;37.06;100977.00;5054307;28;20485;-72
2022/10/24 04:49:42;;;;;;;18.87;10.80;;;;;;;40.22;36.57;100976.13;5054291;28;20433;-72
2022/10/24 04:52:09;;;;;;;17.33;9.90;;;;;;;40.02;36.93;100986.47;5053893;28;20422;-72
2022/10/24 04:54:35;;;;;;;18.47;12.83;;;;;;;40.21;36.72;100996.28;5050707;28;20200;-72
2022/10/24 04:57:01;;;;;;;20.77;12.93;;;;;;;40.20;36.57;100991.94;5065396;28;20441;-72
2022/10/24 04:59:27;;;;;;;13.50;10.43;;;;;;;40.37;36.20;101002.00;5057860;28;20413;-72
2022/10/24 05:01:55;;;;;;;15.47;12.03;;;;;;;39.72;37.39;101004.47;5054179;28;20426;-71
2022/10/24 05:04:21;;;;;;;19.50;11.07;;;;;;;40.11;36.55;101002.81;5071843;28;20406;-72
2022/10/24 05:06:47;;;;;;;16.10;10.67;;;;;;;40.17;36.44;101001.53;5054018;28;20455;-72
2022/10/24 05:09:14;;;;;;;18.73;13.77;;;;;;;40.12;37.06;101007.13;5054178;28;20566;-72
2022/10/24 05:11:40;;;;;;;19.00;12.60;;;;;;;39.79;36.82;101006.72;5053863;28;20175;-74
2022/10/24 05:14:06;;;;;;;19.80;11.63;;;;;;;40.29;36.56;101012.56;5054033;28;20420;-71
2022/10/24 05:16:31;;;;;;;22.40;13.43;;;;;;;40.24;36.44;101012.72;5053720;28;20426;-71
2022/10/24 05:18:57;;;;;;;19.40;12.40;;;;;;;40.03;36.72;101017.16;5053994;28;20566;-73
2022/10/24 05:21:23;;;;;;;17.03;13.50;;;;;;;39.90;36.66;101018.88;5050534;28;20175;-74
2022/10/24 05:23:49;;;;;;;15.50;12.90;;;;;;;40.47;36.11;101026.16;5055306;28;20655;-74
2022/10/24 05:26:15;;;;;;;18.67;14.77;;;;;;;40.37;35.98;101024.56;5070060;28;20187;-74
2022/10/24 05:28:41;;;;;;;18.10;12.17;;;;;;;40.39;36.13;101026.94;5069578;28;20233;-74
2022/10/24 05:31:07;;;;;;;26.20;15.17;;;;;;;40.33;36.08;101028.22;5070185;28;20429;-74
2022/10/24 05:33:33;;;;;;;21.80;16.30;;;;;;;40.32;36.45;101034.78;5070028;28;20183;-74
2022/10/24 05:35:58;;;;;;;24.10;14.87;;;;;;;40.49;36.21;101035.63;5069798;28;20459;-69
2022/10/24 05:38:24;;;;;;;26.63;15.90;;;;;;;40.19;36.24;101042.75;5070019;28;20190;-72
2022/10/24 05:40:51;;;;;;;29.23;16.00;;;;;;;39.99;36.46;101030.56;5069419;28;20296;-70
2022/10/24 05:43:17;;;;;;;19.57;13.77;;;;;;;40.13;36.66;101037.81;5073758;28;20256;-74
2022/10/24 05:45:44;;;;;;;22.90;16.80;;;;;;;39.78;36.85;101042.31;5073070;28;20424;-74
2022/10/24 05:48:10;;;;;;;22.97;15.60;;;;;;;40.08;36.84;101049.63;5073501;28;20785;-74
2022/10/24 05:50:36;;;;;;;21.30;14.50;;;;;;;39.88;36.74;101056.41;5075232;28;20429;-72
2022/10/24 05:53:02;;;;;;;22.20;14.27;;;;;;;40.19;36.40;101052.84;5073610;28;20183;-72
2022/10/24 05:55:29;;;;;;;21.10;17.17;;;;;;;40.09;36.17;101053.97;5073497;28;20207;-69
2022/10/24 05:57:55;;;;;;;24.10;15.40;;;;;;;39.94;36.57;101055.16;5046511;28;20442;-71
2022/10/24 06:00:22;;;;;;;21.17;14.80;;;;;;;39.71;37.11;101076.16;5070527;28;20955;-72
2022/10/24 06:02:48;;;;;;;23.70;14.07;;;;;;;40.21;36.49;101070.44;5055775;28;20445;-72
2022/10/24 06:05:14;;;;;;;26.63;14.93;;;;;;;40.31;36.15;101074.75;5052155;28;20816;-72
2022/10/24 06:07:40;;;;;;;25.43;14.47;;;;;;;40.21;35.89;101073.16;5036216;28;20451;-69
2022/10/24 06:10:08;;;;;;;20.70;13.83;;;;;;;40.32;36.15;101081.00;5053991;28;20509;-71
2022/10/24 06:12:35;;;;;;;18.17;13.73;;;;;;;39.81;36.81;101074.28;5042683;28;20436;-73
2022/10/24 06:15:02;;;;;;;19.03;14.03;;;;;;;39.71;36.92;101080.78;5045669;28;20465;-75
2022/10/24 06:17:28;;;;;;;22.37;13.90;;;;;;;39.90;37.25;101080.53;5044081;28;21007;-75
2022/10/24 06:19:54;;;;;;;26.77;14.60;;;;;;;39.73;37.23;101079.38;5049955;28;20467;-68
2022/10/24 06:22:26;;;;;;;23.37;16.00;;;;;;;39.88;36.95;101080.84;5034877;28;21754;-70
2022/10/24 06:24:52;;;;;;;23.63;15.70;;;;;;;39.11;38.37;101084.75;5038530;28;20180;-71
2022/10/24 06:27:18;;;;;;;26.03;18.10;;;;;;;39.72;37.72;101085.94;5032438;23;20631;-71
2022/10/24 06:29:44;;;;;;;24.30;17.80;;;;;;;39.84;37.62;101087.22;5010786;28;20925;-69
2022/10/24 06:32:10;;;;;;;26.43;16.30;;;;;;;40.17;36.83;101083.06;4992966;28;20428;-68
2022/10/24 06:34:37;;;;;;;23.30;17.33;;;;;;;39.75;37.29;101093.44;5028648;28;20468;-71
2022/10/24 06:37:03;;;;;;;29.50;17.67;;;;;;;39.47;37.83;101100.97;5029671;28;20811;-72
2022/10/24 06:39:29;;;;;;;25.47;19.50;;;;;;;39.65;37.90;101110.00;5029942;28;20436;-72
2022/10/24 06:41:55;;;;;;;22.07;14.00;;;;;;;38.62;39.79;101110.00;5011893;28;20435;-70
2022/10/24 06:44:21;;;;;;;27.60;17.40;;;;;;;39.40;38.16;101107.91;5017608;28;20983;-71
2022/10/24 06:46:47;;;;;;;23.53;16.50;;;;;;;39.11;38.70;101111.06;5013361;28;20424;-71
2022/10/24 06:49:13;;;;;;;24.90;16.50;;;;;;;39.32;38.16;101116.81;5029541;28;20929;-71
2022/10/24 06:51:40;;;;;;;25.57;19.27;;;;;;;39.46;38.21;101117.53;5012097;28;20196;-70
2022/10/24 06:54:06;;;;;;;25.73;17.80;;;;;;;39.85;37.22;101105.94;5011157;28;20455;-72
2022/10/24 06:56:32;;;;;;;24.57;16.23;;;;;;;40.28;36.81;101122.41;5027703;28;20444;-71
2022/10/24 06:58:58;;;;;;;26.40;18.53;;;;;;;40.64;36.38;101120.56;5028090;22;20472;-67
2022/10/24 07:01:26;;;;;;;22.30;15.53;;;;;;;39.96;37.26;101125.47;5049418;28;20454;-67
2022/10/24 07:03:53;;;;;;;29.10;16.43;;;;;;;40.05;37.31;101129.06;5023897;28;20455;-70
2022/10/24 07:06:22;;;;;;;26.23;14.90;;;;;;;40.45;36.72;101137.13;5018451;28;20429;-68
2022/10/24 07:08:50;;;;;;;25.67;16.00;;;;;;;40.55;36.63;101137.66;5032554;28;20430;-68
2022/10/24 07:11:16;;;;;;;27.83;14.23;;;;;;;39.80;37.99;101129.72;5032514;28;20864;-69
2022/10/24 07:13:42;;;;;;;23.63;14.70;;;;;;;40.26;36.76;101140.13;5048831;28;20518;-68
2022/10/24 07:16:08;;;;;;;19.70;11.80;;;;;;;40.33;37.07;101145.09;5037908;28;20534;-67
2022/10/24 07:18:34;;;;;;;22.70;12.60;;;;;;;39.91;37.99;101145.44;5027407;28;20261;-67
2022/10/24 07:21:02;;;;;;;22.37;12.20;;;;;;;40.59;37.01;101145.22;5021784;28;20420;-67
2022/10/24 07:23:28;;;;;;;25.77;14.67;;;;;;;40.96;35.90;101155.50;5031307;28;20493;-70
2022/10/24 07:25:54;;;;;;;23.03;12.37;;;;;;;41.11;36.02;101165.06;5029402;28;20420;-68
2022/10/24 07:28:20;;;;;;;25.20;17.17;;;;;;;40.10;37.90;101164.25;5037046;28;20420;-67
2022/10/24 07:30:46;;;;;;;15.90;11.43;;;;;;;40.92;36.17;101168.13;5044871;28;20302;-67
2022/10/24 07:33:12;;;;;;;24.00;14.20;;;;;;;40.90;36.33;101173.09;5017136;28;20182;-68
2022/10/24 07:35:42;;;;;;;20.37;12.10;;;;;;;40.75;36.61;101179.75;5029157;28;20458;-71
2022/10/24 07:38:08;;;;;;;18.30;11.23;;;;;;;40.78;36.78;101183.78;5027326;28;20465;-68
2022/10/24 07:40:34;;;;;;;15.10;10.73;;;;;;;39.78;38.17;101189.78;5044697;28;20470;-69
2022/10/24 07:43:00;;;;;;;16.80;12.23;;;;;;;40.78;36.65;101190.00;5027967;28;20267;-67
2022/10/24 07:45:27;;;;;;;20.10;11.20;;;;;;;40.33;37.40;101191.31;5028681;28;20570;-68
2022/10/24 07:47:53;;;;;;;22.30;13.23;;;;;;;41.31;36.28;101194.38;5020803;28;20192;-71
2022/10/24 07:50:19;;;;;;;21.37;12.30;;;;;;;41.36;35.66;101198.88;5028151;28;20417;-78
2022/10/24 07:52:45;;;;;;;18.73;15.43;;;;;;;41.22;36.09;101196.28;5042689;28;20835;-74
2022/10/24 07:55:10;;;;;;;23.10;13.90;;;;;;;41.66;35.34;101216.13;5027131;28;20510;-71
2022/10/24 07:57:36;;;;;;;24.27;12.67;;;;;;;41.49;35.91;101214.22;5025823;28;20276;-67
2022/10/24 08:00:04;;;;;;;20.47;13.53;;;;;;;41.72;35.77;101219.47;5028670;28;20305;-69
2022/10/24 08:02:31;;;;;;;21.60;10.57;;;;;;;41.71;35.30;101215.94;5029998;28;20279;-68
2022/10/24 08:04:57;;;;;;;20.47;9.40;;;;;;;41.75;35.46;101224.31;5031478;28;20982;-69
2022/10/24 08:07:23;;;;;;;16.90;9.13;;;;;;;41.82;35.35;101227.34;5032225;28;20416;-69
2022/10/24 08:09:50;;;;;;;24.67;9.23;;;;;;;41.36;35.71;101220.66;5031728;28;20431;-66
2022/10/24 08:12:16;;;;;;;14.00;8.40;;;;;;;41.95;34.94;101218.16;5031337;28;20206;-67
2022/10/24 08:14:43;;;;;;;16.20;9.43;;;;;;;41.86;35.37;101229.06;5032551;28;20470;-68
2022/10/24 08:17:09;;;;;;;24.77;12.43;;;;;;;41.90;35.25;101225.72;5031675;28;21025;-67
2022/10/24 08:19:36;;;;;;;18.97;12.70;;;;;;;41.86;35.00;101229.06;5032630;28;20419;-68
2022/10/24 08:22:02;;;;;;;18.80;10.80;;;;;;;41.52;35.50;101237.31;5014912;28;20436;-69
2022/10/24 08:24:28;;;;;;;25.50;10.20;;;;;;;41.72;35.32;101238.53;5023264;28;20412;-69
2022/10/24 08:26:57;;;;;;;12.40;7.43;;;;;;;41.96;35.30;101235.31;5030676;28;20450;-67
2022/10/24 08:29:24;;;;;;;36.83;12.83;;;;;;;41.82;35.35;101230.88;5030347;28;20557;-67
2022/10/24 08:31:54;;;;;;;27.10;11.43;;;;;;;41.72;35.48;101244.78;5029798;28;20451;-66
2022/10/24 08:34:21;;;;;;;25.80;12.30;;;;;;;41.69;35.76;101242.72;5030426;28;20467;-68
2022/10/24 08:36:48;;;;;;;20.60;10.70;;;;;;;41.75;35.51;101238.75;5032478;28;20478;-70
2022/10/24 08:39:15;;;;;;;19.93;9.87;;;;;;;41.51;35.78;101235.72;5031093;28;20808;-73
2022/10/24 08:41:56;;;;;;;15.50;8.43;;;;;;;41.80;35.40;101245.91;5035350;28;20498;-73
2022/10/24 08:44:27;;;;;;;20.27;9.80;;;;;;;41.77;35.54;101247.38;5028931;28;20518;-72
2022/10/24 08:47:27;;;;;;;18.33;10.90;;;;;;;41.75;35.34;101246.13;5030697;28;20935;-72
2022/10/24 08:50:20;;;;;;;22.80;12.27;;;;;;;42.02;35.26;101242.19;5028940;28;20435;-69
2022/10/24 08:52:54;;;;;;;15.70;9.60;;;;;;;42.17;35.01;101247.09;5022371;28;20827;-69
2022/10/24 08:55:27;;;;;;;14.87;8.30;;;;;;;42.14;35.12;101245.81;5032334;28;20470;-69
2022/10/24 08:57:59;;;;;;;14.90;8.50;;;;;;;42.08;35.02;101241.69;5031650;28;21028;-72
2022/10/24 09:00:38;;;;;;;18.30;9.27;;;;;;;42.03;34.92;101254.69;5029238;28;20499;-69
2022/10/24 09:03:27;;;;;;;14.93;9.07;;;;;;;41.82;35.44;101260.03;5027696;28;20502;-70
2022/10/24 09:05:56;;;;;;;14.47;9.37;;;;;;;42.03;35.16;101262.84;5022491;28;20479;-71
2022/10/24 09:08:45;;;;;;;17.93;11.00;;;;;;;42.34;34.75;101266.13;5030738;28;20426;-71
2022/10/24 09:11:19;;;;;;;15.43;10.93;;;;;;;42.23;35.41;101264.88;5016642;28;20462;-72
2022/10/24 09:13:46;;;;;;;17.40;9.30;;;;;;;42.18;35.60;101264.28;5046868;28;20549;-70
2022/10/24 09:16:16;;;;;;;18.57;8.53;;;;;;;42.44;35.09;101261.44;5031017;28;20491;-70
2022/10/24 09:18:45;;;;;;;15.53;9.80;;;;;;;42.02;35.48;101267.50;5047210;28;20482;-69
2022/10/24 09:21:13;;;;;;;23.60;10.20;;;;;;;42.23;35.15;101264.88;5034812;28;20443;-72
2022/10/24 09:23:41;;;;;;;17.53;9.90;;;;;;;41.67;35.96;101261.28;5016917;28;20473;-71
2022/10/24 09:26:14;;;;;;;19.87;11.40;;;;;;;42.02;35.79;101264.78;5033912;28;20431;-68
2022/10/24 09:28:41;;;;;;;20.73;10.10;;;;;;;42.24;35.48;101250.16;5034275;28;20423;-68
2022/10/24 09:31:34;;;;;;;12.47;9.30;;;;;;;42.40;34.87;101253.91;5050930;28;20427;-67
2022/10/24 09:34:00;;;;;;;17.83;10.67;;;;;;;42.18;35.02;101240.56;5015537;28;20974;-67
2022/10/24 09:36:29;;;;;;;18.07;9.73;;;;;;;42.23;34.88;101247.72;5034498;28;20455;-68
2022/10/24 09:38:55;;;;;;;17.87;9.87;;;;;;;42.34;35.16;101243.53;5018111;28;20454;-67
2022/10/24 09:41:25;;;;;;;20.83;10.00;;;;;;;42.31;34.90;101234.06;5034650;28;20848;-67
2022/10/24 09:43:56;;;;;;;16.07;9.60;;;;;;;42.42;34.94;101239.97;5034416;28;20181;-67
2022/10/24 09:46:34;;;;;;;16.97;10.50;;;;;;;42.37;35.14;101240.94;5034282;28;20423;-67
2022/10/24 09:49:12;;;;;;;17.37;11.60;;;;;;;42.50;34.84;101241.84;5034234;28;20430;-68
2022/10/24 09:52:19;;;;;;;23.57;12.63;;;;;;;42.40;35.25;101239.47;5034235;28;20431;-66
2022/10/24 09:54:46;;;;;;;15.23;9.90;;;;;;;42.56;34.88;101242.44;5022572;28;20463;-68
2022/10/24 09:57:12;;;;;;;13.33;9.67;;;;;;;42.39;34.84;101238.69;5034051;28;20525;-67
2022/10/24 09:59:57;;;;;;;21.07;10.17;;;;;;;41.95;35.23;101236.44;5033795;28;20526;-67
2022/10/24 10:02:23;;;;;;;22.80;10.43;;;;;;;42.40;35.34;101237.53;5050549;28;20665;-70
2022/10/24 10:05:01;;;;;;;21.03;12.07;;;;;;;42.40;34.85;101239.47;5021208;28;20450;-69
2022/10/24 10:07:30;;;;;;;28.10;12.40;;;;;;;42.51;34.97;101232.53;5033898;28;20184;-69
2022/10/24 10:10:21;;;;;;;23.37;10.33;;;;;;;42.69;34.72;101227.78;5035100;28;20454;-70
2022/10/24 10:12:56;;;;;;;16.20;9.70;;;;;;;42.73;34.48;101225.22;5017301;28;20432;-69
2022/10/24 10:15:31;;;;;;;14.93;9.30;;;;;;;42.77;34.49;101223.41;5020122;28;20467;-69
2022/10/24 10:18:02;;;;;;;19.17;9.47;;;;;;;42.58;34.56;101218.41;5034937;28;20480;-68
2022/10/24 10:20:34;;;;;;;25.47;11.97;;;;;;;42.74;34.57;101222.16;5038540;28;20438;-69
2022/10/24 10:23:24;;;;;;;15.90;11.97;;;;;;;42.80;34.56;101212.63;5019918;28;20434;-69
2022/10/24 10:26:05;;;;;;;16.83;10.00;;;;;;;42.88;34.58;101211.75;5038320;28;21021;-68
2022/10/24 10:28:34;;;;;;;15.33;9.10;;;;;;;42.88;34.53;101213.69;5032854;28;20957;-69
2022/10/24 10:31:01;;;;;;;16.47;9.90;;;;;;;42.95;34.54;101210.44;5033517;28;20440;-69
2022/10/24 10:33:37;;;;;;;21.07;11.30;;;;;;;43.07;34.56;101211.31;5049312;28;20432;-69
2022/10/24 10:36:13;;;;;;;14.20;8.83;;;;;;;42.82;34.62;101204.13;5034556;28;20427;-69
2022/10/24 10:38:57;;;;;;;19.77;8.80;;;;;;;42.83;34.47;101197.53;5016697;28;20463;-69
2022/10/24 10:41:44;;;;;;;14.07;9.27;;;;;;;42.86;34.39;101196.88;5033072;28;20967;-69
2022/10/24 10:44:47;;;;;;;21.97;10.67;;;;;;;42.78;34.67;101198.50;5032967;28;20420;-68
2022/10/24 10:47:46;;;;;;;14.47;9.53;;;;;;;42.83;34.55;101192.06;5032803;28;20426;-70
2022/10/24 10:50:50;;;;;;;21.37;13.90;;;;;;;42.96;34.72;101195.66;5034520;28;20468;-71
2022/10/24 10:53:37;;;;;;;17.03;9.73;;;;;;;42.65;34.59;101196.84;5029115;28;20416;-67
2022/10/24 10:56:11;;;;;;;14.10;9.63;;;;;;;42.86;34.47;101178.56;5032767;28;20478;-68
2022/10/24 10:59:18;;;;;;;14.33;8.17;;;;;;;43.04;34.37;101194.81;5032603;28;20510;-68
2022/10/24 11:02:16;;;;;;;23.73;11.80;;;;;;;42.91;34.46;101186.56;5035566;28;20428;-71
2022/10/24 11:05:09;;;;;;;18.30;9.70;;;;;;;43.08;34.44;101177.44;5023874;28;20889;-68
2022/10/24 11:08:00;;;;;;;16.43;9.50;;;;;;;43.14;34.42;101173.34;5032687;28;20451;-68
2022/10/24 11:10:38;;;;;;;15.90;10.20;;;;;;;42.74;34.78;101172.25;5037082;28;20994;-69
2022/10/24 11:13:10;;;;;;;15.00;10.60;;;;;;;42.71;34.79;101157.31;5032966;28;20429;-68
2022/10/24 11:15:42;;;;;;;31.50;12.23;;;;;;;42.80;34.62;101160.00;5032492;28;21002;-69
2022/10/24 11:18:14;;;;;;;13.90;10.13;;;;;;;42.81;34.51;101159.66;5015477;28;20804;-68
2022/10/24 11:20:58;;;;;;;15.27;9.20;;;;;;;42.53;35.10;101156.63;5032696;28;20826;-68
2022/10/24 11:23:38;;;;;;;29.93;10.07;;;;;;;42.51;35.25;101153.44;5032390;28;20424;-69
